Terminal Aerodrome Forecast
Issued by NWS

Home | Current Version | Previous Version | Text Only | Print | Product List | Glossary Off
Versions: 1 2 3 4 5 6 7 8 9 10 11 12 13 14 15 16 17 18 19 20

341
FTUS43 KGRB 281555 AAA
TAFATW
TAF AMD
KATW 281555Z 2816/2912 08012G18KT P6SM -SHRA OVC060
     FM281900 07010G16KT P6SM OVC060
     FM290000 05008KT P6SM VCSH SCT060 OVC080
     FM290500 02005KT P6SM BKN090=

USA.gov is the U.S. government's official web portal to all federal, state and local government web resources and services.